sensor_id;sensor_type;location;lat;lon;timestamp;pressure;altitude;pressure_sealevel;temperature;humidity
36014;BME280;22275;43.208;27.620;2023-10-08T00:00:44;101394.69;;;14.75;100.00
36014;BME280;22275;43.208;27.620;2023-10-08T00:03:15;101376.59;;;14.94;100.00
36014;BME280;22275;43.208;27.620;2023-10-08T00:05:43;101379.16;;;14.95;100.00
36014;BME280;22275;43.208;27.620;2023-10-08T00:08:12;101380.22;;;15.06;100.00
36014;BME280;22275;43.208;27.620;2023-10-08T00:10:43;101378.06;;;14.59;100.00
36014;BME280;22275;43.208;27.620;2023-10-08T00:13:13;101383.75;;;14.67;100.00
36014;BME280;22275;43.208;27.620;2023-10-08T00:15:42;101385.03;;;14.74;100.00
36014;BME280;22275;43.208;27.620;2023-10-08T00:18:18;101374.50;;;14.33;100.00
36014;BME280;22275;43.208;27.620;2023-10-08T00:20:46;101381.09;;;14.67;100.00
36014;BME280;22275;43.208;27.620;2023-10-08T00:23:20;101371.59;;;15.02;100.00
36014;BME280;22275;43.208;27.620;2023-10-08T00:25:51;101378.97;;;15.11;100.00
36014;BME280;22275;43.208;27.620;2023-10-08T00:28:20;101369.75;;;15.29;100.00
36014;BME280;22275;43.208;27.620;2023-10-08T00:30:48;101364.97;;;15.34;100.00
36014;BME280;22275;43.208;27.620;2023-10-08T00:33:15;101368.03;;;15.28;100.00
36014;BME280;22275;43.208;27.620;2023-10-08T00:35:44;101368.16;;;15.39;100.00
36014;BME280;22275;43.208;27.620;2023-10-08T00:38:13;101352.31;;;15.25;100.00
36014;BME280;22275;43.208;27.620;2023-10-08T00:40:46;101362.81;;;15.14;100.00
36014;BME280;22275;43.208;27.620;2023-10-08T00:43:33;101350.88;;;14.69;100.00
36014;BME280;22275;43.208;27.620;2023-10-08T00:46:01;101355.16;;;14.97;100.00
36014;BME280;22275;43.208;27.620;2023-10-08T00:48:42;101355.56;;;14.78;100.00
36014;BME280;22275;43.208;27.620;2023-10-08T00:51:11;101352.44;;;14.32;100.00
36014;BME280;22275;43.208;27.620;2023-10-08T00:53:55;101356.44;;;14.11;100.00
36014;BME280;22275;43.208;27.620;2023-10-08T00:56:33;101348.94;;;14.18;100.00
36014;BME280;22275;43.208;27.620;2023-10-08T00:59:16;101352.94;;;14.11;100.00
36014;BME280;22275;43.208;27.620;2023-10-08T01:01:47;101353.84;;;14.24;100.00
36014;BME280;22275;43.208;27.620;2023-10-08T01:04:17;101358.16;;;14.39;100.00
36014;BME280;22275;43.208;27.620;2023-10-08T01:06:51;101352.13;;;14.37;100.00
36014;BME280;22275;43.208;27.620;2023-10-08T01:09:21;101343.59;;;14.59;100.00
36014;BME280;22275;43.208;27.620;2023-10-08T01:12:10;101337.50;;;14.71;100.00
36014;BME280;22275;43.208;27.620;2023-10-08T01:14:43;101340.06;;;14.72;100.00
36014;BME280;22275;43.208;27.620;2023-10-08T01:17:12;101335.09;;;14.93;100.00
36014;BME280;22275;43.208;27.620;2023-10-08T01:19:42;101328.00;;;15.06;100.00
36014;BME280;22275;43.208;27.620;2023-10-08T01:22:21;101332.03;;;15.24;100.00
36014;BME280;22275;43.208;27.620;2023-10-08T01:24:53;101323.44;;;15.33;100.00
36014;BME280;22275;43.208;27.620;2023-10-08T01:27:21;101328.31;;;15.14;100.00
36014;BME280;22275;43.208;27.620;2023-10-08T01:29:50;101325.25;;;15.08;100.00
36014;BME280;22275;43.208;27.620;2023-10-08T01:32:19;101318.78;;;15.12;100.00
36014;BME280;22275;43.208;27.620;2023-10-08T01:34:48;101318.34;;;14.92;100.00
36014;BME280;22275;43.208;27.620;2023-10-08T01:37:18;101306.31;;;14.74;100.00
36014;BME280;22275;43.208;27.620;2023-10-08T01:39:47;101310.38;;;15.05;100.00
36014;BME280;22275;43.208;27.620;2023-10-08T01:42:16;101311.66;;;15.00;100.00
36014;BME280;22275;43.208;27.620;2023-10-08T01:44:44;101310.09;;;14.58;100.00
36014;BME280;22275;43.208;27.620;2023-10-08T01:47:14;101304.09;;;13.74;100.00
36014;BME280;22275;43.208;27.620;2023-10-08T01:49:42;101301.47;;;13.74;100.00
36014;BME280;22275;43.208;27.620;2023-10-08T01:52:12;101301.66;;;13.71;100.00
36014;BME280;22275;43.208;27.620;2023-10-08T01:54:46;101300.34;;;14.31;100.00
36014;BME280;22275;43.208;27.620;2023-10-08T01:57:14;101298.47;;;13.52;100.00
36014;BME280;22275;43.208;27.620;2023-10-08T01:59:42;101285.66;;;14.13;100.00
36014;BME280;22275;43.208;27.620;2023-10-08T02:02:10;101295.22;;;14.16;100.00
36014;BME280;22275;43.208;27.620;2023-10-08T02:04:38;101297.72;;;14.05;100.00
36014;BME280;22275;43.208;27.620;2023-10-08T02:07:10;101294.50;;;14.26;100.00
36014;BME280;22275;43.208;27.620;2023-10-08T02:09:38;101286.94;;;14.34;100.00
36014;BME280;22275;43.208;27.620;2023-10-08T02:12:07;101286.25;;;14.31;100.00
36014;BME280;22275;43.208;27.620;2023-10-08T02:14:36;101292.97;;;14.10;100.00
36014;BME280;22275;43.208;27.620;2023-10-08T02:17:07;101278.81;;;14.23;100.00
36014;BME280;22275;43.208;27.620;2023-10-08T02:19:35;101274.78;;;14.30;100.00
36014;BME280;22275;43.208;27.620;2023-10-08T02:22:03;101280.41;;;14.53;100.00
36014;BME280;22275;43.208;27.620;2023-10-08T02:24:35;101273.72;;;14.20;100.00
36014;BME280;22275;43.208;27.620;2023-10-08T02:27:03;101276.53;;;14.05;100.00
36014;BME280;22275;43.208;27.620;2023-10-08T02:29:33;101271.50;;;14.00;100.00
36014;BME280;22275;43.208;27.620;2023-10-08T02:32:00;101271.47;;;13.88;100.00
36014;BME280;22275;43.208;27.620;2023-10-08T02:34:30;101270.22;;;13.93;100.00
36014;BME280;22275;43.208;27.620;2023-10-08T02:36:57;101268.88;;;14.27;100.00
36014;BME280;22275;43.208;27.620;2023-10-08T02:39:28;101259.63;;;14.59;100.00
36014;BME280;22275;43.208;27.620;2023-10-08T02:41:57;101265.38;;;14.91;100.00
36014;BME280;22275;43.208;27.620;2023-10-08T02:44:27;101274.72;;;14.71;100.00
36014;BME280;22275;43.208;27.620;2023-10-08T02:46:55;101269.56;;;14.43;100.00
36014;BME280;22275;43.208;27.620;2023-10-08T02:49:23;101274.56;;;14.48;100.00
36014;BME280;22275;43.208;27.620;2023-10-08T02:51:52;101276.06;;;13.43;100.00
36014;BME280;22275;43.208;27.620;2023-10-08T02:54:21;101269.19;;;13.12;100.00
36014;BME280;22275;43.208;27.620;2023-10-08T02:56:57;101259.94;;;13.34;100.00
36014;BME280;22275;43.208;27.620;2023-10-08T02:59:29;101264.38;;;13.47;100.00
36014;BME280;22275;43.208;27.620;2023-10-08T03:02:09;101256.91;;;13.25;100.00
36014;BME280;22275;43.208;27.620;2023-10-08T03:04:44;101261.50;;;12.94;100.00
36014;BME280;22275;43.208;27.620;2023-10-08T03:07:12;101248.88;;;13.27;100.00
36014;BME280;22275;43.208;27.620;2023-10-08T03:09:47;101248.59;;;13.32;100.00
36014;BME280;22275;43.208;27.620;2023-10-08T03:12:16;101237.19;;;13.72;100.00
36014;BME280;22275;43.208;27.620;2023-10-08T03:14:43;101232.47;;;14.43;100.00
36014;BME280;22275;43.208;27.620;2023-10-08T03:17:29;101235.88;;;15.08;100.00
36014;BME280;22275;43.208;27.620;2023-10-08T03:20:03;101232.47;;;15.31;100.00
36014;BME280;22275;43.208;27.620;2023-10-08T03:22:53;101226.13;;;14.71;100.00
36014;BME280;22275;43.208;27.620;2023-10-08T03:25:22;101224.22;;;14.85;100.00
36014;BME280;22275;43.208;27.620;2023-10-08T03:27:51;101231.97;;;13.97;100.00
36014;BME280;22275;43.208;27.620;2023-10-08T03:30:20;101228.19;;;13.05;100.00
36014;BME280;22275;43.208;27.620;2023-10-08T03:32:49;101220.72;;;13.26;100.00
36014;BME280;22275;43.208;27.620;2023-10-08T03:35:21;101226.28;;;13.36;100.00
36014;BME280;22275;43.208;27.620;2023-10-08T03:37:54;101217.16;;;13.54;100.00
36014;BME280;22275;43.208;27.620;2023-10-08T03:40:43;101227.06;;;14.18;100.00
36014;BME280;22275;43.208;27.620;2023-10-08T03:43:15;101213.38;;;14.51;100.00
36014;BME280;22275;43.208;27.620;2023-10-08T03:45:49;101210.84;;;14.62;100.00
36014;BME280;22275;43.208;27.620;2023-10-08T03:48:20;101225.69;;;14.12;100.00
36014;BME280;22275;43.208;27.620;2023-10-08T03:50:48;101205.88;;;14.70;100.00
36014;BME280;22275;43.208;27.620;2023-10-08T03:53:22;101207.47;;;14.85;100.00
36014;BME280;22275;43.208;27.620;2023-10-08T03:55:50;101204.00;;;15.33;100.00
36014;BME280;22275;43.208;27.620;2023-10-08T03:58:21;101210.53;;;15.66;100.00
36014;BME280;22275;43.208;27.620;2023-10-08T04:00:57;101201.63;;;15.54;100.00
36014;BME280;22275;43.208;27.620;2023-10-08T04:03:35;101207.50;;;15.46;100.00
36014;BME280;22275;43.208;27.620;2023-10-08T04:06:24;101196.06;;;15.93;100.00
36014;BME280;22275;43.208;27.620;2023-10-08T04:08:56;101191.44;;;16.19;100.00
36014;BME280;22275;43.208;27.620;2023-10-08T04:11:37;101201.13;;;15.73;100.00
36014;BME280;22275;43.208;27.620;2023-10-08T04:14:18;101189.34;;;15.28;100.00
36014;BME280;22275;43.208;27.620;2023-10-08T04:16:46;101213.25;;;14.39;100.00
36014;BME280;22275;43.208;27.620;2023-10-08T04:19:21;101204.69;;;14.49;100.00
36014;BME280;22275;43.208;27.620;2023-10-08T04:21:52;101200.75;;;15.17;100.00
36014;BME280;22275;43.208;27.620;2023-10-08T04:24:25;101203.16;;;15.93;100.00
36014;BME280;22275;43.208;27.620;2023-10-08T04:27:00;101187.13;;;16.29;100.00
36014;BME280;22275;43.208;27.620;2023-10-08T04:29:29;101190.78;;;16.04;100.00
36014;BME280;22275;43.208;27.620;2023-10-08T04:31:59;101199.59;;;15.81;100.00
36014;BME280;22275;43.208;27.620;2023-10-08T04:34:35;101187.00;;;15.48;100.00
36014;BME280;22275;43.208;27.620;2023-10-08T04:37:03;101192.59;;;14.45;100.00
36014;BME280;22275;43.208;27.620;2023-10-08T04:39:40;101195.81;;;14.75;100.00
36014;BME280;22275;43.208;27.620;2023-10-08T04:42:14;101200.22;;;14.36;100.00
36014;BME280;22275;43.208;27.620;2023-10-08T04:44:51;101200.34;;;14.08;100.00
36014;BME280;22275;43.208;27.620;2023-10-08T04:47:20;101204.16;;;14.04;100.00
36014;BME280;22275;43.208;27.620;2023-10-08T04:49:59;101201.38;;;13.93;100.00
36014;BME280;22275;43.208;27.620;2023-10-08T04:52:30;101195.03;;;14.08;100.00
36014;BME280;22275;43.208;27.620;2023-10-08T04:54:59;101191.75;;;14.57;100.00
36014;BME280;22275;43.208;27.620;2023-10-08T04:57:38;101188.25;;;14.94;100.00
36014;BME280;22275;43.208;27.620;2023-10-08T05:00:09;101186.06;;;15.24;100.00
36014;BME280;22275;43.208;27.620;2023-10-08T05:02:40;101187.00;;;15.48;100.00
36014;BME280;22275;43.208;27.620;2023-10-08T05:05:17;101188.41;;;15.16;100.00
36014;BME280;22275;43.208;27.620;2023-10-08T05:08:04;101190.03;;;14.93;100.00
36014;BME280;22275;43.208;27.620;2023-10-08T05:10:47;101188.63;;;15.13;100.00
36014;BME280;22275;43.208;27.620;2023-10-08T05:13:40;101181.59;;;15.37;100.00
36014;BME280;22275;43.208;27.620;2023-10-08T05:16:23;101181.34;;;15.53;100.00
36014;BME280;22275;43.208;27.620;2023-10-08T05:19:09;101181.72;;;15.72;100.00
36014;BME280;22275;43.208;27.620;2023-10-08T05:22:14;101182.84;;;16.16;100.00
36014;BME280;22275;43.208;27.620;2023-10-08T05:25:06;101174.94;;;16.49;100.00
36014;BME280;22275;43.208;27.620;2023-10-08T05:27:34;101166.53;;;16.55;100.00
36014;BME280;22275;43.208;27.620;2023-10-08T05:30:23;101166.94;;;16.95;100.00
36014;BME280;22275;43.208;27.620;2023-10-08T05:33:05;101161.94;;;17.23;100.00
36014;BME280;22275;43.208;27.620;2023-10-08T05:35:39;101166.47;;;17.66;100.00
36014;BME280;22275;43.208;27.620;2023-10-08T05:38:18;101155.19;;;18.05;100.00
36014;BME280;22275;43.208;27.620;2023-10-08T05:41:04;101144.72;;;18.34;100.00
36014;BME280;22275;43.208;27.620;2023-10-08T05:43:32;101141.56;;;18.61;100.00
36014;BME280;22275;43.208;27.620;2023-10-08T05:46:28;101140.50;;;18.73;100.00
36014;BME280;22275;43.208;27.620;2023-10-08T05:49:15;101130.75;;;18.92;100.00
36014;BME280;22275;43.208;27.620;2023-10-08T05:52:04;101139.25;;;19.17;100.00
36014;BME280;22275;43.208;27.620;2023-10-08T05:54:55;101131.75;;;19.41;100.00
36014;BME280;22275;43.208;27.620;2023-10-08T05:57:42;101128.41;;;19.77;100.00
36014;BME280;22275;43.208;27.620;2023-10-08T06:00:18;101128.81;;;19.82;100.00
36014;BME280;22275;43.208;27.620;2023-10-08T06:03:02;101130.91;;;20.17;100.00
36014;BME280;22275;43.208;27.620;2023-10-08T06:05:59;101132.75;;;20.17;100.00
36014;BME280;22275;43.208;27.620;2023-10-08T06:08:43;101136.25;;;20.27;100.00
36014;BME280;22275;43.208;27.620;2023-10-08T06:11:20;101128.91;;;20.48;100.00
36014;BME280;22275;43.208;27.620;2023-10-08T06:14:08;101127.47;;;20.63;100.00
36014;BME280;22275;43.208;27.620;2023-10-08T06:16:43;101127.97;;;20.76;100.00
36014;BME280;22275;43.208;27.620;2023-10-08T06:19:14;101126.13;;;20.77;100.00
36014;BME280;22275;43.208;27.620;2023-10-08T06:21:42;101114.69;;;20.84;100.00
36014;BME280;22275;43.208;27.620;2023-10-08T06:24:10;101115.78;;;20.91;100.00
36014;BME280;22275;43.208;27.620;2023-10-08T06:26:46;101097.81;;;21.29;100.00
36014;BME280;22275;43.208;27.620;2023-10-08T06:29:15;101112.31;;;21.36;100.00
36014;BME280;22275;43.208;27.620;2023-10-08T06:31:53;101109.28;;;21.48;100.00
36014;BME280;22275;43.208;27.620;2023-10-08T06:34:21;101105.13;;;21.54;100.00
36014;BME280;22275;43.208;27.620;2023-10-08T06:36:54;101108.81;;;21.70;100.00
36014;BME280;22275;43.208;27.620;2023-10-08T06:39:21;101102.00;;;21.76;100.00
36014;BME280;22275;43.208;27.620;2023-10-08T06:41:54;101106.22;;;21.96;100.00
36014;BME280;22275;43.208;27.620;2023-10-08T06:44:24;101088.81;;;22.00;100.00
36014;BME280;22275;43.208;27.620;2023-10-08T06:46:53;101085.28;;;22.25;100.00
36014;BME280;22275;43.208;27.620;2023-10-08T06:49:22;101084.13;;;22.28;100.00
36014;BME280;22275;43.208;27.620;2023-10-08T06:51:51;101080.75;;;22.52;100.00
36014;BME280;22275;43.208;27.620;2023-10-08T06:54:19;101093.22;;;22.61;100.00
36014;BME280;22275;43.208;27.620;2023-10-08T06:56:48;101079.03;;;22.68;100.00
36014;BME280;22275;43.208;27.620;2023-10-08T06:59:19;101064.81;;;22.76;100.00
36014;BME280;22275;43.208;27.620;2023-10-08T07:01:49;101072.59;;;22.95;100.00
36014;BME280;22275;43.208;27.620;2023-10-08T07:04:17;101066.75;;;23.08;100.00
36014;BME280;22275;43.208;27.620;2023-10-08T07:06:47;101072.50;;;23.13;100.00
36014;BME280;22275;43.208;27.620;2023-10-08T07:09:16;101065.31;;;23.37;100.00
36014;BME280;22275;43.208;27.620;2023-10-08T07:11:55;101059.28;;;23.35;100.00
36014;BME280;22275;43.208;27.620;2023-10-08T07:14:25;101072.00;;;23.25;100.00
36014;BME280;22275;43.208;27.620;2023-10-08T07:16:54;101061.13;;;23.35;100.00
36014;BME280;22275;43.208;27.620;2023-10-08T07:21:59;101058.31;;;23.61;100.00
36014;BME280;22275;43.208;27.620;2023-10-08T07:24:33;101049.88;;;23.48;100.00
36014;BME280;22275;43.208;27.620;2023-10-08T07:27:02;101042.66;;;23.56;100.00
36014;BME280;22275;43.208;27.620;2023-10-08T07:29:36;101040.81;;;23.49;100.00
36014;BME280;22275;43.208;27.620;2023-10-08T07:32:04;101047.91;;;23.50;100.00
36014;BME280;22275;43.208;27.620;2023-10-08T07:34:36;101043.38;;;23.66;100.00
36014;BME280;22275;43.208;27.620;2023-10-08T07:37:04;101039.16;;;23.80;100.00
36014;BME280;22275;43.208;27.620;2023-10-08T07:39:33;101036.44;;;23.88;100.00
36014;BME280;22275;43.208;27.620;2023-10-08T07:42:02;101025.69;;;23.88;100.00
36014;BME280;22275;43.208;27.620;2023-10-08T07:44:31;101020.78;;;24.08;100.00
36014;BME280;22275;43.208;27.620;2023-10-08T07:47:03;101013.88;;;24.05;100.00
36014;BME280;22275;43.208;27.620;2023-10-08T07:49:36;101018.63;;;23.71;100.00
36014;BME280;22275;43.208;27.620;2023-10-08T07:52:04;101013.75;;;23.74;100.00
36014;BME280;22275;43.208;27.620;2023-10-08T07:54:31;101012.06;;;23.73;100.00
36014;BME280;22275;43.208;27.620;2023-10-08T07:57:01;101002.47;;;23.87;100.00
36014;BME280;22275;43.208;27.620;2023-10-08T07:59:39;101008.19;;;24.00;100.00
36014;BME280;22275;43.208;27.620;2023-10-08T08:02:09;100994.41;;;23.95;100.00
36014;BME280;22275;43.208;27.620;2023-10-08T08:04:37;100990.38;;;24.15;100.00
36014;BME280;22275;43.208;27.620;2023-10-08T08:07:05;100976.03;;;24.23;100.00
36014;BME280;22275;43.208;27.620;2023-10-08T08:09:33;100979.38;;;24.25;100.00
36014;BME280;22275;43.208;27.620;2023-10-08T08:12:05;100974.47;;;24.36;100.00
36014;BME280;22275;43.208;27.620;2023-10-08T08:14:37;100966.78;;;24.56;100.00
36014;BME280;22275;43.208;27.620;2023-10-08T08:17:08;100963.34;;;24.70;100.00
36014;BME280;22275;43.208;27.620;2023-10-08T08:19:40;100968.81;;;24.93;100.00
36014;BME280;22275;43.208;27.620;2023-10-08T08:22:07;100962.84;;;25.05;100.00
36014;BME280;22275;43.208;27.620;2023-10-08T08:24:40;100959.09;;;25.06;100.00
36014;BME280;22275;43.208;27.620;2023-10-08T08:27:10;100956.47;;;25.21;100.00
36014;BME280;22275;43.208;27.620;2023-10-08T08:29:50;100947.09;;;25.54;100.00
36014;BME280;22275;43.208;27.620;2023-10-08T08:32:23;100957.81;;;25.25;100.00
36014;BME280;22275;43.208;27.620;2023-10-08T08:34:50;100951.88;;;25.07;100.00
36014;BME280;22275;43.208;27.620;2023-10-08T08:37:18;100953.78;;;24.98;100.00
36014;BME280;22275;43.208;27.620;2023-10-08T08:39:48;100958.22;;;25.14;100.00
36014;BME280;22275;43.208;27.620;2023-10-08T08:42:17;100953.06;;;25.04;100.00
36014;BME280;22275;43.208;27.620;2023-10-08T08:44:50;100947.72;;;25.19;100.00
36014;BME280;22275;43.208;27.620;2023-10-08T08:47:21;100942.91;;;25.29;100.00
36014;BME280;22275;43.208;27.620;2023-10-08T08:49:50;100938.22;;;25.31;100.00
36014;BME280;22275;43.208;27.620;2023-10-08T08:52:21;100932.97;;;25.52;100.00
36014;BME280;22275;43.208;27.620;2023-10-08T08:54:53;100924.94;;;25.82;100.00
36014;BME280;22275;43.208;27.620;2023-10-08T08:57:21;100922.78;;;25.92;100.00
36014;BME280;22275;43.208;27.620;2023-10-08T08:59:53;100927.06;;;26.01;100.00
36014;BME280;22275;43.208;27.620;2023-10-08T09:02:23;100927.66;;;26.11;100.00
36014;BME280;22275;43.208;27.620;2023-10-08T09:04:51;100932.47;;;26.01;100.00
36014;BME280;22275;43.208;27.620;2023-10-08T09:07:20;100904.34;;;25.81;100.00
36014;BME280;22275;43.208;27.620;2023-10-08T09:09:48;100916.63;;;25.98;100.00
36014;BME280;22275;43.208;27.620;2023-10-08T09:12:17;100914.06;;;26.19;100.00
36014;BME280;22275;43.208;27.620;2023-10-08T09:14:47;100914.78;;;26.42;100.00
36014;BME280;22275;43.208;27.620;2023-10-08T09:17:16;100917.38;;;26.50;100.00
36014;BME280;22275;43.208;27.620;2023-10-08T09:19:45;100912.19;;;26.70;100.00
36014;BME280;22275;43.208;27.620;2023-10-08T09:22:12;100913.47;;;26.74;100.00
36014;BME280;22275;43.208;27.620;2023-10-08T09:24:45;100916.41;;;26.94;100.00
36014;BME280;22275;43.208;27.620;2023-10-08T09:27:12;100911.91;;;27.01;100.00
36014;BME280;22275;43.208;27.620;2023-10-08T09:29:40;100906.63;;;26.93;100.00
36014;BME280;22275;43.208;27.620;2023-10-08T09:32:09;100909.84;;;26.81;100.00
36014;BME280;22275;43.208;27.620;2023-10-08T09:34:36;100906.56;;;26.86;100.00
36014;BME280;22275;43.208;27.620;2023-10-08T09:37:06;100905.78;;;27.13;100.00
36014;BME280;22275;43.208;27.620;2023-10-08T09:39:33;100891.19;;;26.87;100.00
36014;BME280;22275;43.208;27.620;2023-10-08T09:42:02;100896.13;;;26.83;100.00
36014;BME280;22275;43.208;27.620;2023-10-08T09:44:30;100888.22;;;27.03;100.00
36014;BME280;22275;43.208;27.620;2023-10-08T09:47:03;100882.88;;;27.09;100.00
36014;BME280;22275;43.208;27.620;2023-10-08T09:49:33;100890.53;;;27.06;100.00
36014;BME280;22275;43.208;27.620;2023-10-08T09:52:06;100879.59;;;26.93;100.00
36014;BME280;22275;43.208;27.620;2023-10-08T09:54:41;100873.22;;;27.00;100.00
36014;BME280;22275;43.208;27.620;2023-10-08T09:57:10;100858.72;;;27.08;100.00
36014;BME280;22275;43.208;27.620;2023-10-08T09:59:38;100856.53;;;27.18;100.00
36014;BME280;22275;43.208;27.620;2023-10-08T10:02:06;100847.66;;;27.30;100.00
36014;BME280;22275;43.208;27.620;2023-10-08T10:04:41;100838.00;;;27.43;100.00
36014;BME280;22275;43.208;27.620;2023-10-08T10:07:12;100840.75;;;27.49;100.00
36014;BME280;22275;43.208;27.620;2023-10-08T10:09:43;100835.41;;;27.62;100.00
36014;BME280;22275;43.208;27.620;2023-10-08T10:12:15;100848.09;;;27.55;100.00
36014;BME280;22275;43.208;27.620;2023-10-08T10:14:46;100844.31;;;27.50;100.00
36014;BME280;22275;43.208;27.620;2023-10-08T10:17:15;100840.44;;;27.37;100.00
36014;BME280;22275;43.208;27.620;2023-10-08T10:19:50;100835.47;;;27.69;100.00
36014;BME280;22275;43.208;27.620;2023-10-08T10:22:29;100828.19;;;27.76;100.00
36014;BME280;22275;43.208;27.620;2023-10-08T10:25:05;100821.19;;;27.88;100.00
36014;BME280;22275;43.208;27.620;2023-10-08T10:27:41;100817.44;;;27.89;100.00
36014;BME280;22275;43.208;27.620;2023-10-08T10:30:09;100804.72;;;28.37;100.00
36014;BME280;22275;43.208;27.620;2023-10-08T10:32:45;100803.44;;;28.33;100.00
36014;BME280;22275;43.208;27.620;2023-10-08T10:35:14;100802.41;;;28.27;100.00
36014;BME280;22275;43.208;27.620;2023-10-08T10:37:45;100786.75;;;28.16;100.00
36014;BME280;22275;43.208;27.620;2023-10-08T10:40:20;100790.50;;;28.22;100.00
36014;BME280;22275;43.208;27.620;2023-10-08T10:42:56;100772.66;;;28.60;100.00
36014;BME280;22275;43.208;27.620;2023-10-08T10:45:28;100770.38;;;28.57;100.00
36014;BME280;22275;43.208;27.620;2023-10-08T10:48:08;100776.88;;;28.69;100.00
36014;BME280;22275;43.208;27.620;2023-10-08T10:50:39;100765.78;;;28.84;100.00
36014;BME280;22275;43.208;27.620;2023-10-08T10:53:29;100753.72;;;28.80;100.00
36014;BME280;22275;43.208;27.620;2023-10-08T10:55:56;100747.66;;;28.71;100.00
36014;BME280;22275;43.208;27.620;2023-10-08T10:58:31;100755.81;;;28.78;100.00
36014;BME280;22275;43.208;27.620;2023-10-08T11:01:05;100737.25;;;28.68;100.00
36014;BME280;22275;43.208;27.620;2023-10-08T11:03:33;100745.59;;;28.86;100.00
36014;BME280;22275;43.208;27.620;2023-10-08T11:06:01;100757.69;;;28.77;100.00
36014;BME280;22275;43.208;27.620;2023-10-08T11:08:43;100727.22;;;28.88;100.00
36014;BME280;22275;43.208;27.620;2023-10-08T11:11:12;100729.28;;;28.93;100.00
36014;BME280;22275;43.208;27.620;2023-10-08T11:13:43;100730.31;;;29.25;100.00
36014;BME280;22275;43.208;27.620;2023-10-08T11:16:17;100728.41;;;29.12;100.00
36014;BME280;22275;43.208;27.620;2023-10-08T11:18:47;100725.28;;;29.22;100.00
36014;BME280;22275;43.208;27.620;2023-10-08T11:21:16;100720.91;;;29.14;100.00
36014;BME280;22275;43.208;27.620;2023-10-08T11:23:52;100721.75;;;29.15;100.00
36014;BME280;22275;43.208;27.620;2023-10-08T11:26:22;100713.13;;;29.44;99.46
36014;BME280;22275;43.208;27.620;2023-10-08T11:28:58;100700.03;;;29.34;100.00
36014;BME280;22275;43.208;27.620;2023-10-08T11:31:27;100698.88;;;29.55;99.63
36014;BME280;22275;43.208;27.620;2023-10-08T11:34:03;100698.28;;;29.46;100.00
36014;BME280;22275;43.208;27.620;2023-10-08T11:36:35;100681.81;;;29.41;100.00
36014;BME280;22275;43.208;27.620;2023-10-08T11:39:15;100680.63;;;29.24;100.00
36014;BME280;22275;43.208;27.620;2023-10-08T11:41:56;100691.16;;;29.52;100.00
36014;BME280;22275;43.208;27.620;2023-10-08T11:44:23;100685.84;;;29.77;100.00
36014;BME280;22275;43.208;27.620;2023-10-08T11:46:56;100694.91;;;29.57;100.00
36014;BME280;22275;43.208;27.620;2023-10-08T11:49:30;100691.88;;;29.79;100.00
36014;BME280;22275;43.208;27.620;2023-10-08T11:52:02;100684.34;;;29.87;100.00
36014;BME280;22275;43.208;27.620;2023-10-08T11:54:32;100696.00;;;29.94;100.00
36014;BME280;22275;43.208;27.620;2023-10-08T11:56:59;100691.91;;;29.72;99.95
36014;BME280;22275;43.208;27.620;2023-10-08T11:59:28;100690.44;;;29.76;99.62
36014;BME280;22275;43.208;27.620;2023-10-08T12:01:57;100661.88;;;29.67;99.86
36014;BME280;22275;43.208;27.620;2023-10-08T12:04:25;100676.84;;;29.76;100.00
36014;BME280;22275;43.208;27.620;2023-10-08T12:06:55;100670.97;;;29.86;99.51
36014;BME280;22275;43.208;27.620;2023-10-08T12:09:22;100659.63;;;29.95;99.27
36014;BME280;22275;43.208;27.620;2023-10-08T12:11:55;100670.22;;;30.03;100.00
36014;BME280;22275;43.208;27.620;2023-10-08T12:14:23;100649.91;;;30.12;100.00
36014;BME280;22275;43.208;27.620;2023-10-08T12:16:55;100655.44;;;29.99;100.00
36014;BME280;22275;43.208;27.620;2023-10-08T12:19:25;100649.38;;;29.97;100.00
36014;BME280;22275;43.208;27.620;2023-10-08T12:21:58;100657.97;;;29.94;100.00
36014;BME280;22275;43.208;27.620;2023-10-08T12:24:28;100655.94;;;29.83;100.00
36014;BME280;22275;43.208;27.620;2023-10-08T12:26:58;100665.06;;;29.95;100.00
36014;BME280;22275;43.208;27.620;2023-10-08T12:29:25;100650.94;;;29.80;100.00
36014;BME280;22275;43.208;27.620;2023-10-08T12:31:54;100642.16;;;29.85;100.00
36014;BME280;22275;43.208;27.620;2023-10-08T12:34:25;100638.63;;;30.09;100.00
36014;BME280;22275;43.208;27.620;2023-10-08T12:36:55;100635.75;;;30.29;100.00
36014;BME280;22275;43.208;27.620;2023-10-08T12:39:23;100638.84;;;30.39;100.00
36014;BME280;22275;43.208;27.620;2023-10-08T12:41:53;100634.63;;;30.11;100.00
36014;BME280;22275;43.208;27.620;2023-10-08T12:44:25;100645.50;;;29.80;100.00
36014;BME280;22275;43.208;27.620;2023-10-08T12:46:52;100651.16;;;29.85;100.00
36014;BME280;22275;43.208;27.620;2023-10-08T12:49:21;100646.16;;;29.82;100.00
36014;BME280;22275;43.208;27.620;2023-10-08T12:51:49;100640.63;;;29.95;100.00
36014;BME280;22275;43.208;27.620;2023-10-08T12:54:18;100640.44;;;29.90;100.00
36014;BME280;22275;43.208;27.620;2023-10-08T12:56:49;100633.56;;;29.88;100.00
36014;BME280;22275;43.208;27.620;2023-10-08T12:59:20;100626.31;;;29.82;100.00